Terminal Aerodrome Forecast
Issued by NWS

Home | Current Version | Previous Version | Text Only | Print | Product List | Glossary Off
Versions: 1 2 3 4 5 6 7 8 9 10 11 12 13 14 15 16 17 18 19 20 21 22 23 24 25 26

508
FTUS43 KBIS 222138 AAA
TAFJMS
TAF AMD
KJMS 222138Z 2222/2318 01015KT P6SM SCT009 BKN015 OVC035
      TEMPO 2222/2224 5SM BR BKN009
     FM230000 36013KT P6SM OVC015
     FM230600 36008KT 3SM BR OVC008
     FM231600 03009KT P6SM BKN015=

USA.gov is the U.S. government's official web portal to all federal, state and local government web resources and services.